Time;durP1;ratioP1;P1;durP2;ratioP2;P2;SDS_P1;SDS_P2;PMS_P1;PMS_P2;Temp;Humidity;BMP_temperature;BMP_pressure;BME280_temperature;BME280_humidity;BME280_pressure;Samples;Min_cycle;Max_cycle;Signal;HPM_P1;HPM_P2
2024/02/07 00:01:33;;;;;;;1.58;0.85;;;15.90;90.60;;;;;;5011411;28;20065;-44
2024/02/07 00:03:59;;;;;;;1.42;0.98;;;15.90;90.60;;;;;;5011416;28;20022;-44
2024/02/07 00:06:26;;;;;;;1.42;0.90;;;15.90;90.60;;;;;;5011799;28;20030;-44
2024/02/07 00:08:51;;;;;;;1.35;1.00;;;15.90;90.60;;;;;;5012092;28;20022;-44
2024/02/07 00:11:17;;;;;;;1.55;0.95;;;15.80;90.60;;;;;;5012018;28;20022;-44
2024/02/07 00:13:43;;;;;;;1.45;0.90;;;15.80;90.60;;;;;;5011480;28;20105;-44
2024/02/07 00:16:09;;;;;;;1.88;0.85;;;15.80;90.60;;;;;;5011346;28;20022;-45
2024/02/07 00:18:35;;;;;;;1.55;1.00;;;15.80;90.60;;;;;;5011246;28;20044;-45
2024/02/07 00:21:01;;;;;;;3.03;1.05;;;15.80;90.60;;;;;;5011674;28;20030;-45
2024/02/07 00:23:26;;;;;;;1.70;0.80;;;15.80;90.70;;;;;;5011307;28;20053;-45
2024/02/07 00:25:52;;;;;;;3.10;0.80;;;15.80;90.70;;;;;;5011247;28;20028;-45
2024/02/07 00:28:18;;;;;;;1.40;1.00;;;15.80;90.70;;;;;;5011455;28;20399;-45
2024/02/07 00:30:44;;;;;;;1.65;1.10;;;15.80;90.70;;;;;;5011464;28;20033;-45
2024/02/07 00:33:09;;;;;;;1.50;0.90;;;15.70;90.70;;;;;;5011419;28;20108;-44
2024/02/07 00:35:35;;;;;;;2.13;0.85;;;15.80;90.70;;;;;;5011509;28;20083;-45
2024/02/07 00:38:00;;;;;;;2.13;1.10;;;15.80;90.70;;;;;;5011304;28;20029;-44
2024/02/07 00:40:27;;;;;;;3.05;1.10;;;15.80;90.70;;;;;;5011581;28;20045;-45
2024/02/07 00:42:52;;;;;;;1.15;0.68;;;15.80;90.70;;;;;;5011936;28;20026;-43
2024/02/07 00:45:18;;;;;;;2.22;1.05;;;15.80;90.70;;;;;;5015013;28;20384;-42
2024/02/07 00:47:45;;;;;;;1.52;0.80;;;15.70;90.70;;;;;;5014906;28;20029;-44
2024/02/07 00:50:10;;;;;;;1.33;0.90;;;15.70;90.70;;;;;;5015054;28;20534;-44
2024/02/07 00:52:36;;;;;;;1.55;0.77;;;15.80;90.70;;;;;;5014038;28;20034;-45
2024/02/07 00:55:02;;;;;;;1.27;0.80;;;15.70;90.70;;;;;;5014500;28;20061;-45
2024/02/07 00:57:27;;;;;;;1.63;0.80;;;15.70;90.70;;;;;;5014417;28;20084;-44
2024/02/07 00:59:53;;;;;;;1.92;1.02;;;15.70;90.70;;;;;;5014290;28;20064;-44
2024/02/07 01:02:19;;;;;;;1.73;1.10;;;15.70;90.70;;;;;;5014840;28;20033;-44
2024/02/07 01:04:44;;;;;;;1.90;0.98;;;15.60;90.70;;;;;;5014702;28;20070;-44
2024/02/07 01:07:10;;;;;;;4.63;0.98;;;15.60;90.70;;;;;;5014287;28;20100;-45
2024/02/07 01:09:35;;;;;;;1.88;1.00;;;15.60;90.70;;;;;;5014236;28;20105;-45
2024/02/07 01:12:01;;;;;;;2.15;0.95;;;15.50;90.70;;;;;;5014284;28;20043;-44
2024/02/07 01:14:27;;;;;;;1.35;0.90;;;15.40;90.70;;;;;;5014052;28;20026;-45
2024/02/07 01:16:53;;;;;;;2.45;1.10;;;15.40;90.80;;;;;;5013952;28;20041;-44
2024/02/07 01:19:20;;;;;;;1.25;0.90;;;15.30;90.90;;;;;;5014482;28;20388;-44
2024/02/07 01:21:46;;;;;;;1.88;0.90;;;15.30;91.00;;;;;;5014223;28;20156;-43
2024/02/07 01:24:12;;;;;;;2.17;1.02;;;15.20;91.00;;;;;;5013946;28;20436;-44
2024/02/07 01:26:38;;;;;;;2.75;0.90;;;15.10;91.10;;;;;;5013963;28;20022;-44
2024/02/07 01:29:05;;;;;;;1.67;1.10;;;15.00;91.20;;;;;;5013777;28;20018;-45
2024/02/07 01:31:31;;;;;;;2.05;1.00;;;14.90;91.30;;;;;;5014314;28;20026;-44
2024/02/07 01:33:57;;;;;;;1.65;0.80;;;14.90;91.40;;;;;;5014284;28;20029;-44
2024/02/07 01:36:24;;;;;;;2.65;0.90;;;14.80;91.50;;;;;;5013998;28;20045;-43
2024/02/07 01:38:50;;;;;;;1.65;1.00;;;14.70;91.60;;;;;;5014769;28;20034;-44
2024/02/07 01:41:16;;;;;;;1.38;0.90;;;14.60;91.80;;;;;;5014278;28;20026;-43
2024/02/07 01:43:42;;;;;;;1.52;0.95;;;14.50;91.80;;;;;;5013807;28;20526;-43
2024/02/07 01:46:07;;;;;;;4.80;0.90;;;14.40;91.90;;;;;;5013658;28;20499;-45
2024/02/07 01:48:33;;;;;;;1.08;0.77;;;14.30;92.00;;;;;;5013682;28;20105;-45
2024/02/07 01:51:02;;;;;;;3.47;1.15;;;14.30;92.50;;;;;;5013583;28;20476;-44
2024/02/07 01:53:29;;;;;;;2.75;1.10;;;14.20;92.20;;;;;;5013576;28;20056;-44
2024/02/07 01:55:56;;;;;;;2.22;1.10;;;14.10;92.30;;;;;;5012867;28;20087;-45
2024/02/07 01:58:26;;;;;;;1.33;0.90;;;14.00;92.40;;;;;;5013056;28;20116;-44
2024/02/07 02:00:51;;;;;;;2.58;1.30;;;14.00;92.50;;;;;;5013676;28;20018;-44
2024/02/07 02:03:17;;;;;;;1.42;1.00;;;13.90;92.90;;;;;;5013770;28;20033;-44
2024/02/07 02:05:43;;;;;;;2.60;1.05;;;13.80;92.70;;;;;;5013848;28;20017;-45
2024/02/07 02:08:10;;;;;;;1.88;1.05;;;13.80;92.80;;;;;;5014023;28;20034;-43
2024/02/07 02:10:36;;;;;;;2.03;1.05;;;13.70;92.90;;;;;;5013823;28;20075;-44
2024/02/07 02:13:02;;;;;;;2.13;1.00;;;13.60;93.00;;;;;;5013438;28;20046;-45
2024/02/07 02:15:28;;;;;;;1.83;1.10;;;13.60;93.10;;;;;;5013264;28;20021;-43
2024/02/07 02:17:54;;;;;;;2.05;1.10;;;13.50;93.20;;;;;;5012776;28;20037;-44
2024/02/07 02:20:20;;;;;;;1.50;0.90;;;13.50;93.30;;;;;;5013241;28;20030;-45
2024/02/07 02:23:05;;;;;;;1.42;1.08;;;13.40;93.30;;;;;;5012939;28;20018;-45
2024/02/07 02:26:02;;;;;;;2.55;1.05;;;13.40;93.40;;;;;;5012747;28;20034;-43
2024/02/07 02:28:43;;;;;;;1.05;0.60;;;13.30;93.50;;;;;;5012986;28;20420;-44
2024/02/07 02:31:14;;;;;;;2.90;1.02;;;13.20;93.60;;;;;;5012966;28;20550;-45
2024/02/07 02:33:41;;;;;;;1.23;0.70;;;13.20;93.70;;;;;;5012769;28;20053;-43
2024/02/07 02:36:08;;;;;;;1.85;1.00;;;13.10;93.80;;;;;;5012583;28;20113;-44
2024/02/07 02:38:35;;;;;;;1.85;0.95;;;13.10;93.90;;;;;;5012609;28;20061;-44
2024/02/07 02:41:03;;;;;;;1.52;0.95;;;13.00;93.90;;;;;;5012583;28;20446;-43
2024/02/07 02:43:29;;;;;;;0.90;0.77;;;13.00;94.00;;;;;;5012765;28;20030;-45
2024/02/07 02:45:55;;;;;;;2.75;1.10;;;12.90;94.00;;;;;;5012366;28;20080;-44
2024/02/07 02:48:20;;;;;;;1.10;0.70;;;12.90;94.10;;;;;;5012372;28;20030;-44
2024/02/07 02:50:46;;;;;;;2.55;1.00;;;12.90;94.20;;;;;;5012547;28;20053;-44
2024/02/07 02:53:12;;;;;;;1.58;0.93;;;12.80;94.30;;;;;;5012659;28;20060;-45
2024/02/07 02:55:39;;;;;;;1.17;0.90;;;12.80;94.30;;;;;;5012681;28;20037;-44
2024/02/07 02:58:05;;;;;;;1.25;0.90;;;12.70;94.40;;;;;;5012351;28;20030;-46
2024/02/07 03:00:30;;;;;;;1.40;0.90;;;12.70;94.50;;;;;;5011080;28;20393;-44
2024/02/07 03:02:57;;;;;;;2.45;1.05;;;12.70;94.50;;;;;;5012307;28;20028;-46
2024/02/07 03:05:58;;;;;;;2.25;1.20;;;12.60;94.60;;;;;;5012205;28;20021;-45
2024/02/07 03:08:28;;;;;;;1.38;0.95;;;12.60;94.70;;;;;;5011005;28;20120;-45
2024/02/07 03:10:58;;;;;;;1.52;1.05;;;12.60;94.80;;;;;;5012311;28;20443;-46
2024/02/07 03:13:25;;;;;;;1.50;1.02;;;12.50;94.80;;;;;;5011912;28;20109;-44
2024/02/07 03:15:52;;;;;;;1.13;0.88;;;12.50;94.90;;;;;;5012274;28;20041;-45
2024/02/07 03:18:18;;;;;;;2.30;0.80;;;12.40;94.90;;;;;;5012651;28;20032;-44
2024/02/07 03:20:44;;;;;;;4.70;1.67;;;12.40;95.00;;;;;;5011799;28;20022;-45
2024/02/07 03:23:09;;;;;;;1.45;1.10;;;12.40;95.00;;;;;;5012847;28;20026;-45
2024/02/07 03:25:36;;;;;;;3.92;1.00;;;12.40;95.10;;;;;;5012227;28;20037;-43
2024/02/07 03:28:04;;;;;;;1.45;0.90;;;12.30;95.10;;;;;;5012374;28;20076;-46
2024/02/07 03:30:30;;;;;;;1.35;1.00;;;12.30;95.20;;;;;;5012131;28;20069;-43
2024/02/07 03:32:56;;;;;;;1.63;0.98;;;12.30;95.20;;;;;;5011951;28;20065;-43
2024/02/07 03:35:22;;;;;;;1.35;0.95;;;12.20;95.30;;;;;;5011557;28;20075;-45
2024/02/07 03:37:48;;;;;;;1.92;0.93;;;12.20;95.30;;;;;;5011614;28;20034;-43
2024/02/07 03:40:14;;;;;;;1.33;0.88;;;12.20;95.40;;;;;;5011717;28;20599;-44
2024/02/07 03:42:44;;;;;;;1.45;0.90;;;12.10;95.40;;;;;;5011991;28;20034;-46
2024/02/07 03:45:16;;;;;;;1.27;0.95;;;12.10;95.50;;;;;;5011689;28;20068;-45
2024/02/07 03:47:45;;;;;;;2.75;1.10;;;12.10;95.50;;;;;;5012230;28;20037;-44
2024/02/07 03:50:11;;;;;;;2.05;1.05;;;12.10;95.60;;;;;;5011418;28;20034;-45
2024/02/07 03:52:45;;;;;;;3.70;0.85;;;12.10;95.60;;;;;;5011781;28;20104;-44
2024/02/07 03:55:12;;;;;;;0.98;0.88;;;12.00;95.70;;;;;;5012049;28;20032;-44
2024/02/07 03:57:44;;;;;;;4.05;1.13;;;12.00;95.70;;;;;;5011500;28;20022;-44
2024/02/07 04:00:13;;;;;;;1.60;0.95;;;12.00;95.80;;;;;;5012292;28;20080;-44
2024/02/07 04:02:46;;;;;;;1.27;0.85;;;12.00;95.80;;;;;;5011365;28;20104;-43
2024/02/07 04:05:12;;;;;;;1.07;0.77;;;11.90;96.20;;;;;;5011956;28;20504;-42
2024/02/07 04:07:38;;;;;;;1.25;0.80;;;11.90;95.90;;;;;;5011411;28;20492;-44
2024/02/07 04:10:08;;;;;;;2.35;1.10;;;11.90;95.90;;;;;;5011608;28;20038;-44
2024/02/07 05:17:41;;;;;;;1.15;0.90;;;11.40;96.80;;;;;;5014043;28;20415;-45
2024/02/07 05:20:07;;;;;;;1.50;1.00;;;11.50;96.90;;;;;;5014210;28;20499;-44
2024/02/07 05:22:33;;;;;;;2.05;1.13;;;11.40;96.90;;;;;;5014068;28;20034;-42
2024/02/07 05:25:01;;;;;;;2.28;1.27;;;11.40;96.90;;;;;;5014163;28;20040;-45
2024/02/07 05:27:30;;;;;;;2.55;1.17;;;11.40;97.00;;;;;;5014082;28;20029;-46
2024/02/07 05:29:57;;;;;;;2.40;1.20;;;11.40;97.00;;;;;;5013205;28;20069;-45
2024/02/07 05:32:23;;;;;;;2.03;1.30;;;11.40;97.00;;;;;;5013912;28;20068;-44
2024/02/07 05:34:48;;;;;;;2.33;1.20;;;11.30;97.00;;;;;;5013829;28;20026;-44
2024/02/07 05:37:14;;;;;;;2.58;1.15;;;11.30;97.00;;;;;;5013612;28;20030;-45
2024/02/07 05:39:40;;;;;;;1.95;1.08;;;11.30;97.10;;;;;;5013605;28;20065;-46
2024/02/07 05:42:06;;;;;;;1.60;0.90;;;11.30;97.10;;;;;;5013623;28;20106;-45
2024/02/07 05:44:32;;;;;;;3.28;1.35;;;11.30;97.10;;;;;;5013722;28;20029;-44
2024/02/07 05:46:57;;;;;;;2.58;1.27;;;11.30;97.10;;;;;;5014108;28;20258;-45
2024/02/07 05:49:23;;;;;;;3.67;1.50;;;11.30;97.20;;;;;;5013548;28;20026;-45
2024/02/07 05:51:57;;;;;;;4.28;1.60;;;11.30;97.20;;;;;;5013942;28;20084;-45
2024/02/07 05:54:26;;;;;;;;;;;11.30;97.30;;;;;;5013831;28;20030;-43
2024/02/07 05:56:52;;;;;;;2.97;1.60;;;11.30;97.30;;;;;;5013493;28;19916;-45
2024/02/07 05:59:19;;;;;;;3.33;1.60;;;11.20;97.30;;;;;;5013368;28;20022;-42
2024/02/07 06:01:47;;;;;;;2.90;1.50;;;11.20;97.30;;;;;;5011996;28;20486;-44
2024/02/07 06:04:14;;;;;;;2.65;1.40;;;11.30;97.40;;;;;;5013327;28;20026;-45
2024/02/07 06:06:41;;;;;;;3.47;1.73;;;11.20;97.40;;;;;;5013369;28;20034;-42
2024/02/07 06:09:07;;;;;;;3.72;1.65;;;11.20;97.40;;;;;;5012982;28;20018;-44
2024/02/07 06:11:41;;;;;;;1.55;1.27;;;11.20;97.40;;;;;;5013109;28;20032;-42
2024/02/07 06:14:07;;;;;;;4.20;1.93;;;11.20;97.50;;;;;;5013268;28;20022;-45
2024/02/07 06:16:34;;;;;;;1.95;1.40;;;11.20;97.50;;;;;;5013027;28;20473;-44
2024/02/07 06:19:00;;;;;;;2.53;1.52;;;11.20;97.50;;;;;;5012939;28;20053;-44
2024/02/07 06:21:26;;;;;;;4.15;1.70;;;11.10;97.50;;;;;;5013149;28;20554;-42
2024/02/07 06:23:52;;;;;;;2.15;1.30;;;11.10;97.50;;;;;;5012819;28;20061;-42
2024/02/07 06:26:17;;;;;;;2.35;1.30;;;11.10;97.60;;;;;;5012948;28;20464;-44
2024/02/07 06:28:46;;;;;;;2.72;1.40;;;11.10;97.60;;;;;;5012830;28;20061;-43
2024/02/07 06:31:11;;;;;;;3.17;1.42;;;11.10;97.60;;;;;;5012871;28;20032;-44
2024/02/07 06:33:37;;;;;;;3.25;1.70;;;11.20;97.60;;;;;;5012835;28;20100;-45
2024/02/07 06:36:03;;;;;;;4.07;1.80;;;11.10;97.60;;;;;;5012582;28;20041;-45
2024/02/07 06:38:28;;;;;;;1.83;1.42;;;11.20;97.70;;;;;;5012515;28;20068;-44
2024/02/07 06:40:54;;;;;;;3.35;1.58;;;11.10;97.70;;;;;;5012854;28;20032;-45
2024/02/07 06:43:20;;;;;;;2.97;1.40;;;11.10;97.70;;;;;;5013004;28;20033;-44
2024/02/07 06:45:45;;;;;;;2.10;1.40;;;11.10;97.70;;;;;;5012792;28;20029;-45
2024/02/07 06:48:11;;;;;;;2.58;1.40;;;11.10;97.70;;;;;;5012502;28;20033;-45
2024/02/07 06:50:36;;;;;;;3.03;1.50;;;11.10;97.70;;;;;;5012953;28;20432;-45
2024/02/07 06:53:02;;;;;;;2.28;1.48;;;11.10;97.80;;;;;;5012786;28;20088;-42
2024/02/07 06:55:28;;;;;;;3.00;1.50;;;11.10;97.80;;;;;;5012468;28;20026;-44
2024/02/07 06:57:54;;;;;;;2.78;1.42;;;11.10;97.80;;;;;;5012634;28;20476;-44
2024/02/07 07:00:20;;;;;;;2.65;1.60;;;11.00;97.90;;;;;;5012114;28;20045;-42
2024/02/07 07:02:45;;;;;;;2.40;1.50;;;11.00;97.90;;;;;;5012250;28;20050;-45
2024/02/07 07:05:11;;;;;;;2.85;1.77;;;11.10;98.00;;;;;;5012082;28;20029;-44
2024/02/07 07:07:37;;;;;;;4.85;1.50;;;11.10;98.00;;;;;;5012003;28;20030;-45
2024/02/07 07:10:02;;;;;;;1.98;1.55;;;11.00;98.00;;;;;;5012341;28;20499;-45
2024/02/07 07:12:28;;;;;;;2.63;1.65;;;11.00;98.00;;;;;;5012131;28;20117;-45
2024/02/07 07:14:54;;;;;;;2.38;1.65;;;11.10;98.40;;;;;;5012107;28;20033;-45
2024/02/07 07:17:19;;;;;;;2.85;1.52;;;11.10;98.10;;;;;;5012199;28;20037;-45
2024/02/07 07:19:45;;;;;;;3.95;1.65;;;11.10;98.20;;;;;;5012134;28;20022;-44
2024/02/07 07:22:11;;;;;;;2.92;1.85;;;11.10;98.20;;;;;;5012267;28;20088;-45
2024/02/07 07:24:37;;;;;;;2.92;1.65;;;11.10;98.20;;;;;;5011856;28;20490;-44
2024/02/07 07:27:03;;;;;;;3.05;1.52;;;11.20;98.20;;;;;;5011987;28;20152;-45
2024/02/07 07:29:29;;;;;;;2.53;1.58;;;11.20;98.20;;;;;;5012154;28;20037;-46
2024/02/07 07:31:54;;;;;;;3.75;1.60;;;11.20;98.20;;;;;;5012734;28;20018;-45
2024/02/07 07:34:21;;;;;;;4.53;1.88;;;11.30;98.20;;;;;;5012597;28;20522;-45
2024/02/07 07:36:46;;;;;;;4.00;1.55;;;11.30;98.10;;;;;;5011473;28;20053;-45
2024/02/07 07:39:12;;;;;;;6.88;2.70;;;11.30;98.10;;;;;;5011617;28;20065;-45
2024/02/07 07:41:38;;;;;;;4.43;1.70;;;11.40;98.00;;;;;;5012586;28;20036;-44
2024/02/07 07:44:04;;;;;;;5.93;2.17;;;11.40;98.00;;;;;;5012003;28;20484;-45
2024/02/07 07:46:30;;;;;;;6.85;1.95;;;11.50;97.90;;;;;;5011884;28;20396;-44
2024/02/07 07:48:56;;;;;;;5.55;1.98;;;11.60;97.90;;;;;;5012262;28;20045;-44
2024/02/07 07:51:21;;;;;;;4.88;1.58;;;11.60;97.80;;;;;;5012603;28;20037;-45
2024/02/07 07:53:47;;;;;;;6.13;2.10;;;11.70;97.80;;;;;;5012168;28;20480;-45
2024/02/07 07:56:13;;;;;;;2.80;1.77;;;11.70;97.70;;;;;;5011495;28;20033;-45
2024/02/07 07:58:40;;;;;;;3.45;1.60;;;11.80;97.60;;;;;;5011335;28;20389;-45
2024/02/07 08:01:13;;;;;;;4.30;1.90;;;11.90;97.60;;;;;;5011489;28;20026;-45
2024/02/07 08:03:39;;;;;;;3.50;1.80;;;11.90;97.50;;;;;;5011444;28;20033;-45
2024/02/07 08:06:05;;;;;;;3.55;1.63;;;11.90;97.40;;;;;;5011593;28;20014;-45
2024/02/07 08:08:30;;;;;;;3.67;1.65;;;12.00;97.40;;;;;;5011304;28;20111;-45
2024/02/07 08:10:56;;;;;;;2.95;1.40;;;12.10;97.30;;;;;;5011532;28;20420;-43
2024/02/07 08:13:21;;;;;;;3.20;1.70;;;12.20;97.20;;;;;;5011475;28;20096;-41
2024/02/07 08:15:47;;;;;;;2.55;1.38;;;12.20;97.20;;;;;;5009956;28;20038;-43
2024/02/07 08:18:13;;;;;;;5.13;1.83;;;12.30;97.10;;;;;;5011032;28;20076;-43
2024/02/07 08:20:39;;;;;;;4.07;2.00;;;12.30;97.00;;;;;;5011597;28;20022;-43
2024/02/07 08:23:04;;;;;;;2.80;1.55;;;12.40;97.00;;;;;;5011287;28;20026;-44
2024/02/07 08:25:30;;;;;;;2.83;1.27;;;12.40;96.90;;;;;;5011367;28;20090;-43
2024/02/07 08:27:55;;;;;;;3.70;1.60;;;12.50;96.90;;;;;;5011499;28;20026;-44
2024/02/07 08:30:21;;;;;;;4.07;1.83;;;12.60;96.80;;;;;;5011157;28;20049;-44
2024/02/07 08:32:47;;;;;;;2.53;1.58;;;12.60;96.70;;;;;;5011064;28;20126;-44
2024/02/07 08:35:12;;;;;;;3.55;1.58;;;12.60;96.60;;;;;;5011084;28;20034;-44
2024/02/07 08:37:38;;;;;;;2.78;1.45;;;12.70;96.50;;;;;;5011242;28;20033;-43
2024/02/07 08:40:04;;;;;;;2.13;1.02;;;12.80;96.50;;;;;;5011209;28;20084;-44
2024/02/07 08:42:31;;;;;;;2.90;1.58;;;12.80;96.40;;;;;;5011230;28;20026;-44
2024/02/07 08:44:56;;;;;;;3.00;1.50;;;12.90;96.30;;;;;;5011021;28;20040;-44
2024/02/07 08:47:22;;;;;;;2.50;1.50;;;13.00;96.20;;;;;;5010906;28;20540;-44
2024/02/07 08:49:48;;;;;;;2.28;1.35;;;13.00;96.20;;;;;;5011144;28;20033;-44
2024/02/07 08:52:13;;;;;;;2.75;1.40;;;13.00;96.00;;;;;;5011013;28;20069;-44
2024/02/07 08:54:39;;;;;;;2.78;1.27;;;13.10;96.00;;;;;;5010900;28;20121;-43
2024/02/07 08:57:05;;;;;;;3.30;1.52;;;13.20;95.90;;;;;;5011118;28;20101;-44
2024/02/07 08:59:32;;;;;;;3.10;1.60;;;13.20;95.80;;;;;;5011061;28;20028;-44
2024/02/07 09:01:57;;;;;;;2.83;1.40;;;13.30;95.80;;;;;;5011374;28;20018;-44
2024/02/07 09:04:23;;;;;;;2.95;1.67;;;13.30;95.70;;;;;;5010702;28;20033;-44
2024/02/07 09:06:48;;;;;;;2.72;1.40;;;13.40;95.60;;;;;;5014419;28;20025;-44
2024/02/07 09:09:14;;;;;;;2.45;1.20;;;13.40;95.50;;;;;;5015241;28;20036;-44
2024/02/07 09:11:40;;;;;;;3.20;1.17;;;13.50;95.50;;;;;;5014491;28;20034;-44
2024/02/07 09:14:05;;;;;;;2.72;1.40;;;13.50;95.40;;;;;;5014240;28;20037;-44
2024/02/07 09:16:31;;;;;;;5.32;1.48;;;13.60;95.40;;;;;;5014327;28;20118;-44
2024/02/07 09:18:56;;;;;;;3.33;1.33;;;13.60;95.30;;;;;;5014199;28;20034;-44
2024/02/07 09:21:23;;;;;;;2.65;1.42;;;13.60;95.20;;;;;;5014122;28;20114;-44
2024/02/07 09:23:49;;;;;;;1.65;1.30;;;13.70;95.10;;;;;;5014277;28;20018;-43
2024/02/07 09:26:15;;;;;;;2.88;1.50;;;13.80;95.10;;;;;;5014240;28;20088;-43
2024/02/07 09:28:40;;;;;;;1.80;1.10;;;13.80;95.00;;;;;;5014374;28;20065;-44
2024/02/07 09:31:07;;;;;;;2.38;1.45;;;13.80;95.00;;;;;;5014041;28;20022;-43
2024/02/07 09:33:33;;;;;;;2.60;1.33;;;13.90;94.90;;;;;;5013769;28;20030;-44
2024/02/07 09:35:59;;;;;;;2.25;1.40;;;13.90;94.80;;;;;;5014159;28;20053;-43
2024/02/07 09:38:26;;;;;;;2.50;1.38;;;14.00;94.80;;;;;;5013946;28;20464;-44
2024/02/07 09:41:04;;;;;;;3.38;1.48;;;14.00;94.70;;;;;;5013911;28;20030;-44
2024/02/07 09:43:30;;;;;;;2.65;1.60;;;14.10;94.70;;;;;;5013739;28;20022;-44
2024/02/07 09:46:00;;;;;;;2.35;1.27;;;14.10;94.60;;;;;;5013462;28;20128;-44
2024/02/07 09:48:27;;;;;;;3.25;1.52;;;14.20;94.50;;;;;;5013658;28;20117;-44
2024/02/07 09:50:59;;;;;;;3.17;1.15;;;14.20;94.50;;;;;;5014011;28;20030;-43
2024/02/07 09:53:27;;;;;;;2.20;1.48;;;14.30;94.40;;;;;;5013493;28;20515;-44
2024/02/07 09:55:54;;;;;;;2.85;1.35;;;14.30;94.30;;;;;;5013364;28;20041;-44
2024/02/07 09:58:20;;;;;;;2.55;1.38;;;14.40;94.30;;;;;;5013160;28;20113;-43
2024/02/07 10:00:54;;;;;;;2.45;1.38;;;14.40;94.20;;;;;;5013342;28;20026;-44
2024/02/07 10:03:23;;;;;;;3.00;1.70;;;14.40;94.10;;;;;;5013326;28;20018;-44
2024/02/07 10:05:52;;;;;;;3.00;1.40;;;14.50;94.10;;;;;;5013215;28;20507;-44
2024/02/07 10:08:18;;;;;;;1.77;1.20;;;14.50;94.00;;;;;;5013334;28;20030;-43
2024/02/07 10:10:48;;;;;;;2.58;1.30;;;14.50;93.90;;;;;;5013097;28;20088;-44
2024/02/07 10:13:15;;;;;;;2.58;1.58;;;14.60;94.00;;;;;;5014143;28;20026;-44
2024/02/07 10:15:42;;;;;;;1.38;1.27;;;14.60;93.90;;;;;;5013137;28;20068;-44
2024/02/07 10:18:08;;;;;;;2.40;1.40;;;14.60;93.80;;;;;;5013243;28;20032;-44
2024/02/07 10:20:34;;;;;;;1.95;1.30;;;14.70;93.80;;;;;;5012935;28;20045;-44
2024/02/07 10:23:00;;;;;;;1.92;1.40;;;14.70;93.70;;;;;;5013145;28;20392;-44
2024/02/07 10:25:25;;;;;;;2.20;1.25;;;14.80;93.70;;;;;;5012905;28;20373;-44
2024/02/07 10:28:04;;;;;;;2.28;1.55;;;14.80;93.70;;;;;;5013180;28;20078;-44
2024/02/07 10:30:30;;;;;;;1.67;1.33;;;14.80;93.60;;;;;;5013054;28;20093;-44
2024/02/07 10:32:55;;;;;;;4.30;1.70;;;14.90;93.60;;;;;;5012777;28;20022;-44
2024/02/07 10:35:22;;;;;;;1.50;1.05;;;14.90;93.50;;;;;;5013298;28;20033;-44
2024/02/07 10:37:52;;;;;;;2.05;1.30;;;14.90;93.50;;;;;;5012759;28;20041;-44
2024/02/07 10:40:18;;;;;;;2.15;1.30;;;15.00;93.40;;;;;;5012756;28;20464;-44
2024/02/07 10:42:51;;;;;;;1.75;1.40;;;15.00;93.40;;;;;;5012691;28;20471;-44
2024/02/07 10:45:17;;;;;;;2.22;1.33;;;15.00;93.30;;;;;;5012620;28;20409;-44
2024/02/07 10:47:43;;;;;;;1.65;1.10;;;15.00;93.30;;;;;;5012759;28;20030;-44
2024/02/07 10:50:09;;;;;;;1.77;1.20;;;15.10;93.20;;;;;;5013126;28;20037;-43
2024/02/07 10:52:38;;;;;;;3.30;1.33;;;15.10;93.20;;;;;;5012965;28;20503;-44
2024/02/07 10:55:06;;;;;;;2.63;1.10;;;15.10;93.10;;;;;;5013217;28;20550;-44
2024/02/07 10:57:35;;;;;;;1.52;0.98;;;15.20;93.10;;;;;;5013042;28;20494;-44
2024/02/07 11:00:08;;;;;;;2.72;1.20;;;15.20;93.10;;;;;;5012985;28;20029;-44
2024/02/07 11:02:34;;;;;;;2.22;1.23;;;15.20;93.10;;;;;;5012184;28;20513;-44
2024/02/07 11:05:00;;;;;;;2.38;1.15;;;15.30;93.00;;;;;;5012184;28;20097;-44
2024/02/07 11:07:26;;;;;;;1.90;1.20;;;15.30;93.00;;;;;;5012989;28;20491;-44
2024/02/07 11:09:53;;;;;;;2.55;1.30;;;15.30;93.00;;;;;;5012319;28;20034;-44
2024/02/07 11:12:19;;;;;;;2.17;1.30;;;15.30;93.10;;;;;;5012108;28;20026;-44
2024/02/07 11:14:46;;;;;;;2.38;1.20;;;15.30;92.90;;;;;;5011767;28;20073;-44
2024/02/07 11:17:16;;;;;;;1.98;1.10;;;15.40;92.90;;;;;;5012084;28;20121;-44
2024/02/07 11:19:46;;;;;;;2.30;1.13;;;15.40;92.90;;;;;;5012233;28;20030;-44
2024/02/07 11:22:25;;;;;;;1.95;1.10;;;15.40;92.80;;;;;;5011999;28;20032;-43
2024/02/07 11:24:54;;;;;;;1.98;1.00;;;15.40;92.80;;;;;;5011696;28;20507;-44
2024/02/07 11:27:20;;;;;;;1.80;1.02;;;15.50;92.80;;;;;;5011345;28;20037;-44
2024/02/07 11:29:46;;;;;;;2.45;1.20;;;15.50;92.80;;;;;;5011908;28;20188;-44
2024/02/07 11:32:13;;;;;;;2.35;1.15;;;15.50;92.70;;;;;;5012080;28;20057;-43
2024/02/07 11:34:39;;;;;;;2.67;1.00;;;15.50;92.70;;;;;;5012172;28;20053;-45
2024/02/07 11:37:08;;;;;;;1.63;0.95;;;15.50;92.70;;;;;;5011749;28;20088;-45
2024/02/07 11:39:38;;;;;;;1.67;1.08;;;15.50;92.70;;;;;;5011658;28;20071;-44
2024/02/07 11:42:14;;;;;;;1.65;1.10;;;15.50;92.60;;;;;;5011717;28;20101;-44
2024/02/07 11:44:55;;;;;;;1.80;1.10;;;15.60;92.60;;;;;;5011646;28;20456;-44
2024/02/07 11:47:42;;;;;;;1.55;0.90;;;15.60;92.60;;;;;;5012113;28;20496;-43
2024/02/07 11:50:12;;;;;;;2.15;1.30;;;15.60;92.60;;;;;;5011615;28;20025;-44
2024/02/07 11:52:39;;;;;;;2.55;1.10;;;15.60;92.60;;;;;;5011669;28;20022;-44
2024/02/07 11:55:16;;;;;;;1.83;1.35;;;15.60;92.60;;;;;;5011525;28;20503;-44
2024/02/07 11:57:56;;;;;;;1.85;1.30;;;15.60;92.60;;;;;;5011472;28;20041;-44
2024/02/07 12:00:23;;;;;;;2.47;1.48;;;15.70;92.60;;;;;;5011648;28;20026;-44
2024/02/07 12:02:52;;;;;;;3.83;1.42;;;15.70;92.60;;;;;;5011728;28;20026;-42
2024/02/07 12:05:20;;;;;;;2.97;1.35;;;15.70;92.60;;;;;;5011837;28;20014;-44
2024/02/07 12:07:49;;;;;;;2.50;1.30;;;15.70;92.50;;;;;;5012268;28;20357;-44
2024/02/07 12:10:15;;;;;;;3.15;1.55;;;15.80;92.50;;;;;;5011684;28;20034;-44
2024/02/07 12:12:42;;;;;;;2.72;1.30;;;15.80;92.50;;;;;;5011672;28;20030;-46
2024/02/07 12:15:09;;;;;;;3.13;1.42;;;15.80;92.50;;;;;;5011394;28;20048;-43
2024/02/07 12:17:35;;;;;;;2.72;1.33;;;15.90;92.40;;;;;;5011595;28;20026;-44
2024/02/07 12:20:03;;;;;;;2.53;1.42;;;15.90;92.40;;;;;;5011306;28;20037;-44
2024/02/07 12:22:31;;;;;;;2.88;1.60;;;16.00;92.30;;;;;;5011357;28;20075;-44
2024/02/07 12:25:00;;;;;;;3.50;1.48;;;16.00;92.30;;;;;;5011241;28;20061;-44
2024/02/07 12:27:26;;;;;;;2.53;1.63;;;16.10;92.30;;;;;;5011663;28;20034;-45
2024/02/07 12:29:53;;;;;;;4.70;1.90;;;16.10;92.30;;;;;;5011337;28;20085;-44
2024/02/07 12:32:20;;;;;;;4.07;1.50;;;16.20;92.20;;;;;;5011294;28;20034;-43
2024/02/07 12:34:47;;;;;;;4.03;1.85;;;16.20;92.20;;;;;;5011149;28;20026;-43
2024/02/07 12:37:16;;;;;;;4.53;1.88;;;16.20;92.20;;;;;;5011153;28;20044;-44
2024/02/07 12:39:43;;;;;;;2.92;1.63;;;16.20;92.20;;;;;;5012679;28;20495;-44
2024/02/07 12:42:16;;;;;;;3.83;1.80;;;16.30;92.20;;;;;;5015021;28;20026;-44
2024/02/07 12:44:42;;;;;;;2.38;1.80;;;16.30;92.10;;;;;;5014691;28;20029;-44
2024/02/07 12:47:09;;;;;;;3.65;1.67;;;16.30;92.10;;;;;;5014791;28;20022;-43
2024/02/07 12:49:35;;;;;;;3.50;1.73;;;16.40;92.10;;;;;;5014765;28;20507;-46
2024/02/07 12:52:02;;;;;;;2.97;1.73;;;16.40;92.00;;;;;;5014772;28;20049;-44
2024/02/07 12:54:29;;;;;;;3.35;1.70;;;16.50;92.00;;;;;;5015149;28;20029;-44
2024/02/07 12:56:55;;;;;;;3.35;1.60;;;16.50;91.90;;;;;;5013271;28;20022;-44
2024/02/07 12:59:47;;;;;;;3.25;1.83;;;16.50;91.90;;;;;;5014286;28;20028;-44
2024/02/07 13:02:14;;;;;;;2.70;1.58;;;16.60;92.20;;;;;;5014322;28;20037;-44
2024/02/07 13:04:40;;;;;;;3.17;1.67;;;16.60;91.80;;;;;;5014397;28;20069;-44
2024/02/07 13:07:09;;;;;;;2.67;1.70;;;16.60;91.80;;;;;;5014688;28;20049;-46
2024/02/07 13:09:34;;;;;;;3.38;1.60;;;16.70;91.80;;;;;;5014402;28;20056;-43
2024/02/07 13:12:00;;;;;;;4.45;1.83;;;16.70;91.70;;;;;;5014411;28;20053;-44
2024/02/07 13:14:26;;;;;;;3.55;1.60;;;16.70;91.70;;;;;;5014533;28;20046;-44
2024/02/07 13:16:52;;;;;;;3.40;1.50;;;16.80;91.60;;;;;;5014356;28;20557;-44
2024/02/07 13:19:20;;;;;;;2.58;1.48;;;16.80;91.60;;;;;;5014043;28;20026;-44
2024/02/07 13:21:46;;;;;;;2.63;1.60;;;16.90;91.50;;;;;;5014492;28;20411;-44
2024/02/07 13:24:16;;;;;;;2.10;1.08;;;16.90;91.40;;;;;;5014039;28;20026;-43
2024/02/07 13:26:43;;;;;;;2.88;1.60;;;16.90;91.30;;;;;;5014249;28;20026;-45
2024/02/07 13:29:09;;;;;;;2.55;1.52;;;16.90;91.20;;;;;;5014082;28;20034;-44
2024/02/07 13:31:38;;;;;;;3.47;1.60;;;17.00;91.20;;;;;;5014007;28;20041;-41
2024/02/07 13:34:14;;;;;;;2.47;1.30;;;17.00;91.20;;;;;;5014183;28;20030;-44
2024/02/07 13:36:40;;;;;;;1.98;1.25;;;17.00;91.10;;;;;;5014432;28;20488;-44
2024/02/07 13:39:06;;;;;;;3.15;1.30;;;17.00;91.10;;;;;;5013811;28;20037;-44
2024/02/07 13:41:35;;;;;;;2.58;1.48;;;17.00;91.00;;;;;;5013988;28;20022;-44
2024/02/07 13:44:01;;;;;;;2.88;1.27;;;17.10;91.00;;;;;;5013731;28;20457;-43
2024/02/07 13:46:28;;;;;;;2.97;1.73;;;17.10;90.90;;;;;;5013749;28;20030;-45
2024/02/07 13:48:56;;;;;;;3.80;1.50;;;17.10;90.90;;;;;;5014236;28;20053;-45
2024/02/07 13:51:22;;;;;;;2.33;1.20;;;17.10;90.90;;;;;;5012764;28;20428;-45
2024/02/07 13:53:47;;;;;;;3.45;1.23;;;17.10;90.90;;;;;;5013578;28;20488;-45